UKDE/OZH METAR and TAF weather

Enter ICAO airport designator
Station Type Date Time Source
UKDE METAR 2020/11/25 21:00 UTC NOAA

UKDE 252100Z 28003MPS 9999 BKN011 04/03 Q1020 R20/290554 NOSIG


Station Type Date Time Source
UKDE Decoded METAR 2020/11/25 21:00 UTC NOAA

Zaporizhzhia / Mokraya, Ukraine (UKDE) 47-52-02N 035-18-59E
Nov 25, 2020 - 04:00 PM EST / 2020.11.25 2100 UTC
Wind: from the W (280 degrees) at 7 MPH (6 KT):0
Visibility: greater than 7 mile(s):0
Sky conditions: mostly cloudy
Temperature: 39 F (4 C)
Dew Point: 37 F (3 C)
Relative Humidity: 93%
Pressure (altimeter): 30.12 in. Hg (1020 hPa)
ob: UKDE 252100Z 28003MPS 9999 BKN011 04/03 Q1020 R20/290554 NOSIG
cycle: 21

Station Type Date Time Source
UKDE TAF 2020/06/03 15:15 UTC NOAA

TAF
AMD TAF
AMD UKDE 031510Z 0315/0524 21007MPS 9999 BKN030CB
TEMPO 0315/0318 VRB15G20MPS 0300 +TSRAGR SQ BKN007 BKN013CB

Example: see airport list